KOGB/OGB METAR and TAF weather

Enter ICAO airport designator
Station Type Date Time Source
KOGB METAR 2022/09/26 09:53 UTC NOAA

KOGB 260953Z AUTO 00000KT 10SM CLR 19/18 A2987 RMK AO2 SLP111 T01890178


Station Type Date Time Source
KOGB Decoded METAR 2022/09/26 09:53 UTC NOAA

ORANGEBURG MUNICIPAL AIRPORT, SC, United States (KOGB) 33-28N 080-51W 59M
Sep 26, 2022 - 05:53 AM EDT / 2022.09.26 0953 UTC
Wind: Calm:0
Visibility: 10 mile(s):0
Sky conditions: clear
Temperature: 66.0 F (18.9 C)
Dew Point: 64.0 F (17.8 C)
Relative Humidity: 93%
Pressure (altimeter): 29.87 in. Hg (1011 hPa)
ob: KOGB 260953Z AUTO 00000KT 10SM CLR 19/18 A2987 RMK AO2 SLP111 T01890178
cycle: 10

Station Type Date Time Source
KOGB TAF 2022/09/26 09:03 UTC NOAA

TAF
AMD KOGB 260901Z 2609/2706 VRB03KT P6SM FEW060 SCT250
TEMPO 2610/2612 5SM BR
FM261400 25006KT P6SM SCT060
FM261700 28010G18KT P6SM SCT060 SCT250
FM262300 31005KT P6SM SKC

Example: see airport list